createdAt,value
2018-08-07T00:01:30.373Z,19.00
2018-08-07T00:03:58.807Z,19.00
2018-08-07T00:06:27.289Z,18.90
2018-08-07T00:08:55.696Z,18.90
2018-08-07T00:11:24.235Z,18.80
2018-08-07T00:13:52.638Z,18.70
2018-08-07T00:16:21.076Z,18.80
2018-08-07T00:18:49.500Z,18.80
2018-08-07T00:21:17.932Z,18.80
2018-08-07T00:23:46.315Z,18.80
2018-08-07T00:26:14.777Z,18.70
2018-08-07T00:28:43.191Z,18.40
2018-08-07T00:31:11.639Z,18.20
2018-08-07T00:33:40.054Z,18.10
2018-08-07T00:36:08.473Z,18.00
2018-08-07T00:38:36.874Z,18.00
2018-08-07T00:41:05.361Z,18.00
2018-08-07T00:43:33.779Z,18.10
2018-08-07T00:46:02.260Z,18.10
2018-08-07T00:48:30.752Z,18.20
2018-08-07T00:50:59.224Z,18.20
2018-08-07T00:53:27.724Z,18.20
2018-08-07T00:55:56.162Z,18.20
2018-08-07T00:58:24.628Z,18.10
2018-08-07T01:00:53.052Z,18.00
2018-08-07T01:03:21.520Z,17.90
2018-08-07T01:05:49.972Z,17.80
2018-08-07T01:08:18.446Z,17.70
2018-08-07T01:10:46.868Z,17.60
2018-08-07T01:13:15.313Z,17.70
2018-08-07T01:15:43.735Z,17.90
2018-08-07T01:18:12.167Z,18.00
2018-08-07T01:20:40.641Z,17.90
2018-08-07T01:23:09.075Z,17.70
2018-08-07T01:25:37.514Z,17.60
2018-08-07T01:28:06.017Z,17.50
2018-08-07T01:30:34.448Z,17.40
2018-08-07T01:33:02.913Z,17.50
2018-08-07T01:35:31.332Z,17.60
2018-08-07T01:37:59.799Z,17.60
2018-08-07T01:40:28.324Z,17.70
2018-08-07T01:42:56.780Z,17.80
2018-08-07T01:45:25.203Z,17.90
2018-08-07T01:47:53.632Z,18.00
2018-08-07T01:50:22.075Z,18.00
2018-08-07T01:52:50.465Z,18.00
2018-08-07T01:55:23.436Z,18.00
2018-08-07T01:57:51.855Z,18.00
2018-08-07T02:00:20.571Z,18.00
2018-08-07T02:02:49.373Z,18.10
2018-08-07T02:05:17.855Z,18.10
2018-08-07T02:07:46.334Z,18.00
2018-08-07T02:12:44.563Z,17.60
2018-08-07T02:15:13.557Z,17.40
2018-08-07T02:17:41.997Z,17.20
2018-08-07T02:20:14.943Z,17.20
2018-08-07T02:22:43.997Z,17.20
2018-08-07T02:25:19.147Z,17.20
2018-08-07T02:27:47.915Z,17.30
2018-08-07T02:30:16.977Z,17.40
2018-08-07T02:32:45.472Z,17.40
2018-08-07T02:35:15.011Z,17.50
2018-08-07T02:37:44.532Z,17.50
2018-08-07T02:40:13.660Z,17.50
2018-08-07T02:42:42.480Z,17.30
2018-08-07T02:45:13.964Z,17.10
2018-08-07T02:47:43.268Z,17.10
2018-08-07T02:50:14.336Z,17.10
2018-08-07T02:52:42.837Z,17.10
2018-08-07T02:55:11.871Z,17.20
2018-08-07T02:57:41.198Z,17.10
2018-08-07T03:00:20.409Z,17.10
2018-08-07T03:02:49.111Z,17.10
2018-08-07T03:05:18.405Z,16.90
2018-08-07T03:07:46.986Z,16.90
2018-08-07T03:10:15.416Z,16.90
2018-08-07T03:12:43.839Z,16.90
2018-08-07T03:15:14.675Z,17.00
2018-08-07T03:17:44.209Z,17.10
2018-08-07T03:20:12.651Z,17.10
2018-08-07T03:22:41.143Z,17.10
2018-08-07T03:25:11.592Z,17.10
2018-08-07T03:27:40.260Z,17.10
2018-08-07T03:30:11.028Z,17.10
2018-08-07T03:32:39.507Z,17.20
2018-08-07T03:35:08.183Z,17.20
2018-08-07T03:37:37.462Z,17.20
2018-08-07T03:40:09.284Z,17.30
2018-08-07T03:42:37.860Z,17.30
2018-08-07T03:45:07.268Z,17.30
2018-08-07T03:47:35.739Z,17.30
2018-08-07T03:50:04.707Z,17.30
2018-08-07T03:55:01.355Z,17.10
2018-08-07T03:57:29.811Z,17.00
2018-08-07T03:59:58.214Z,17.00
2018-08-07T04:02:26.618Z,17.00
2018-08-07T04:04:55.090Z,17.10
2018-08-07T04:07:23.491Z,17.10
2018-08-07T04:09:51.923Z,17.10
2018-08-07T04:12:20.344Z,17.00
2018-08-07T04:14:48.778Z,17.00
2018-08-07T04:17:17.195Z,17.00
2018-08-07T04:19:45.617Z,17.10
2018-08-07T04:22:14.019Z,17.10
2018-08-07T04:24:42.447Z,17.20
2018-08-07T04:27:10.854Z,17.20
2018-08-07T04:29:39.279Z,17.30
2018-08-07T04:32:07.703Z,17.40
2018-08-07T04:34:36.143Z,17.50
2018-08-07T04:37:04.581Z,17.60
2018-08-07T04:39:32.996Z,17.80
2018-08-07T04:42:01.419Z,18.20
2018-08-07T04:44:29.835Z,18.70
2018-08-07T04:46:58.406Z,19.00
2018-08-07T04:49:26.812Z,19.30
2018-08-07T04:51:55.317Z,19.60
2018-08-07T04:54:23.687Z,20.00
2018-08-07T04:56:52.108Z,20.70
2018-08-07T04:59:20.520Z,21.60
2018-08-07T05:01:48.968Z,22.40
2018-08-07T05:04:17.389Z,22.90
2018-08-07T05:06:45.867Z,22.90
2018-08-07T05:09:14.329Z,22.20
2018-08-07T05:11:42.760Z,22.10
2018-08-07T05:14:11.226Z,23.00
2018-08-07T05:16:39.635Z,24.20
2018-08-07T05:19:08.085Z,25.20
2018-08-07T05:21:36.537Z,26.20
2018-08-07T05:24:04.988Z,27.00
2018-08-07T05:26:33.424Z,27.60
2018-08-07T05:29:01.857Z,28.30
2018-08-07T05:31:30.297Z,29.00
2018-08-07T05:33:58.748Z,29.60
2018-08-07T05:36:27.218Z,30.20
2018-08-07T05:38:55.667Z,30.70
2018-08-07T05:41:24.075Z,31.10
2018-08-07T05:43:52.546Z,31.20
2018-08-07T05:46:21.024Z,31.20
2018-08-07T05:48:49.447Z,31.30
2018-08-07T05:51:18.146Z,31.60
2018-08-07T05:53:46.384Z,32.00
2018-08-07T05:56:14.832Z,32.40
2018-08-07T05:58:43.404Z,32.90
2018-08-07T06:01:11.736Z,33.30
2018-08-07T06:03:40.207Z,33.70
2018-08-07T06:06:08.709Z,33.90
2018-08-07T06:08:37.169Z,33.90
2018-08-07T06:11:05.644Z,33.80
2018-08-07T06:13:34.123Z,33.70
2018-08-07T06:16:02.547Z,33.80
2018-08-07T06:18:31.041Z,34.10
2018-08-07T06:20:59.501Z,34.40
2018-08-07T06:23:27.950Z,34.50
2018-08-07T06:25:56.371Z,34.60
2018-08-07T06:28:24.817Z,34.40
2018-08-07T06:30:53.261Z,34.10
2018-08-07T06:33:21.764Z,34.00
2018-08-07T06:35:50.177Z,33.90
2018-08-07T06:38:18.588Z,34.10
2018-08-07T06:40:47.067Z,34.30
2018-08-07T06:43:15.479Z,34.50
2018-08-07T06:48:12.172Z,35.20
2018-08-07T06:50:40.563Z,35.10
2018-08-07T06:53:08.980Z,34.50
2018-08-07T06:55:37.457Z,34.20
2018-08-07T06:58:05.954Z,34.30
2018-08-07T07:00:34.416Z,34.20
2018-08-07T07:03:02.876Z,34.40
2018-08-07T07:05:31.336Z,34.30
2018-08-07T07:07:59.791Z,34.50
2018-08-07T07:10:28.521Z,34.60
2018-08-07T07:12:56.939Z,34.70
2018-08-07T07:15:25.435Z,34.60
2018-08-07T07:20:22.008Z,33.90
2018-08-07T07:22:50.420Z,33.50
2018-08-07T07:25:18.883Z,33.20
2018-08-07T07:27:47.351Z,33.10
2018-08-07T07:30:20.020Z,33.10
2018-08-07T07:32:49.835Z,33.50
2018-08-07T07:35:18.711Z,33.60
2018-08-07T07:37:47.289Z,33.40
2018-08-07T07:40:15.763Z,33.50
2018-08-07T07:42:44.315Z,33.90
2018-08-07T07:45:15.099Z,34.30
2018-08-07T07:47:43.610Z,34.30
2018-08-07T07:50:16.197Z,34.30
2018-08-07T07:52:44.963Z,34.30
2018-08-07T07:55:14.575Z,34.10
2018-08-07T07:57:43.096Z,34.10
2018-08-07T08:00:16.220Z,34.20
2018-08-07T08:02:44.640Z,34.40
2018-08-07T08:05:13.181Z,34.80
2018-08-07T08:07:41.580Z,34.90
2018-08-07T08:10:10.262Z,35.30
2018-08-07T08:12:39.375Z,35.60
2018-08-07T08:15:10.214Z,35.80
2018-08-07T08:17:38.680Z,36.10
2018-08-07T08:20:09.180Z,36.30
2018-08-07T08:22:37.740Z,36.20
2018-08-07T08:25:07.424Z,35.80
2018-08-07T08:27:35.896Z,35.60
2018-08-07T08:30:06.676Z,35.40
2018-08-07T08:32:35.124Z,35.20
2018-08-07T08:35:03.891Z,35.20
2018-08-07T08:37:32.315Z,35.30
2018-08-07T08:40:00.835Z,35.90
2018-08-07T08:42:29.371Z,36.50
2018-08-07T08:44:57.829Z,36.70
2018-08-07T08:47:26.342Z,36.60
2018-08-07T08:49:54.796Z,36.40
2018-08-07T08:52:23.196Z,36.50
2018-08-07T08:54:51.655Z,36.50
2018-08-07T08:57:20.089Z,36.80
2018-08-07T08:59:48.572Z,37.40
2018-08-07T09:02:17.052Z,37.70
2018-08-07T09:04:45.540Z,37.70
2018-08-07T09:07:13.980Z,37.40
2018-08-07T09:09:42.427Z,37.20
2018-08-07T09:12:10.896Z,37.10
2018-08-07T09:14:39.368Z,37.30
2018-08-07T09:17:07.852Z,37.60
2018-08-07T09:19:36.318Z,37.80
2018-08-07T09:22:04.779Z,37.90
2018-08-07T09:24:33.213Z,37.90
2018-08-07T09:27:01.698Z,38.20
2018-08-07T09:29:30.134Z,37.90
2018-08-07T09:31:58.744Z,37.50
2018-08-07T09:34:27.153Z,37.20
2018-08-07T09:36:55.631Z,37.20
2018-08-07T09:39:24.093Z,37.10
2018-08-07T09:41:52.542Z,37.30
2018-08-07T09:44:21.007Z,37.50
2018-08-07T09:46:49.455Z,38.00
2018-08-07T09:49:17.925Z,38.30
2018-08-07T09:51:46.357Z,38.60
2018-08-07T09:54:14.839Z,38.70
2018-08-07T09:56:43.251Z,38.70
2018-08-07T09:59:11.727Z,38.50
2018-08-07T10:01:45.500Z,38.40
2018-08-07T10:04:13.996Z,38.40
2018-08-07T10:06:42.426Z,38.70
2018-08-07T10:09:10.969Z,38.50
2018-08-07T10:11:39.464Z,38.40
2018-08-07T10:14:07.908Z,38.60
2018-08-07T10:16:36.491Z,38.90
2018-08-07T10:19:04.945Z,39.00
2018-08-07T10:21:33.380Z,38.60
2018-08-07T10:24:01.796Z,38.00
2018-08-07T10:26:30.236Z,37.70
2018-08-07T10:28:58.796Z,37.70
2018-08-07T10:31:27.311Z,38.00
2018-08-07T10:33:55.731Z,38.10
2018-08-07T10:36:24.158Z,38.30
2018-08-07T10:38:52.556Z,38.40
2018-08-07T10:41:21.019Z,38.30
2018-08-07T10:43:49.634Z,38.40
2018-08-07T10:46:17.969Z,38.70
2018-08-07T10:48:46.396Z,38.90
2018-08-07T10:51:14.837Z,38.80
2018-08-07T10:53:43.289Z,38.70
2018-08-07T10:56:11.724Z,38.90
2018-08-07T10:58:41.108Z,39.20
2018-08-07T11:01:09.559Z,39.40
2018-08-07T11:03:38.000Z,39.50
2018-08-07T11:06:06.436Z,39.50
2018-08-07T11:08:34.833Z,39.50
2018-08-07T11:11:03.304Z,38.70
2018-08-07T11:13:31.716Z,37.90
2018-08-07T11:16:00.147Z,37.20
2018-08-07T11:18:28.580Z,36.70
2018-08-07T11:20:57.110Z,36.50
2018-08-07T11:23:25.527Z,36.10
2018-08-07T11:25:53.963Z,35.90
2018-08-07T11:28:22.369Z,35.90
2018-08-07T11:30:50.816Z,35.80
2018-08-07T11:33:19.259Z,35.60
2018-08-07T11:35:47.824Z,36.00
2018-08-07T11:38:16.243Z,36.90
2018-08-07T11:40:44.655Z,37.70
2018-08-07T11:43:13.110Z,38.40
2018-08-07T11:45:41.527Z,38.70
2018-08-07T11:48:10.039Z,39.10
2018-08-07T11:50:38.460Z,39.50
2018-08-07T11:53:06.936Z,39.70
2018-08-07T11:55:35.352Z,39.80
2018-08-07T11:58:03.840Z,39.90
2018-08-07T12:00:34.831Z,39.80
2018-08-07T12:03:03.877Z,39.80
2018-08-07T12:05:32.314Z,39.70
2018-08-07T12:08:00.823Z,39.20
2018-08-07T12:10:29.248Z,38.70
2018-08-07T12:15:26.307Z,39.10
2018-08-07T12:17:55.111Z,39.00
2018-08-07T12:20:23.536Z,38.80
2018-08-07T12:22:51.980Z,39.10
2018-08-07T12:25:20.804Z,39.40
2018-08-07T12:27:49.353Z,39.50
2018-08-07T12:30:20.900Z,39.30
2018-08-07T12:35:17.524Z,39.00
2018-08-07T12:37:45.992Z,39.10
2018-08-07T12:40:17.908Z,38.80
2018-08-07T12:42:46.782Z,38.60
2018-08-07T12:45:15.251Z,38.60
2018-08-07T12:47:44.369Z,38.70
2018-08-07T12:50:13.884Z,38.70
2018-08-07T12:52:42.439Z,38.80
2018-08-07T12:55:13.632Z,38.70
2018-08-07T12:57:42.108Z,38.80
2018-08-07T13:00:13.224Z,38.80
2018-08-07T13:02:41.655Z,38.80
2018-08-07T13:05:10.121Z,38.70
2018-08-07T13:07:38.601Z,38.50
2018-08-07T13:10:10.109Z,38.60
2018-08-07T13:12:39.011Z,38.40
2018-08-07T13:15:08.816Z,38.20
2018-08-07T13:17:37.299Z,38.30
2018-08-07T13:20:07.452Z,38.40
2018-08-07T13:22:36.424Z,38.60
2018-08-07T13:25:05.907Z,39.00
2018-08-07T13:27:34.372Z,38.90
2018-08-07T13:30:02.869Z,38.70
2018-08-07T13:32:31.315Z,38.60
2018-08-07T13:34:59.776Z,38.60
2018-08-07T13:37:28.259Z,38.00
2018-08-07T13:39:56.698Z,37.10
2018-08-07T13:42:25.184Z,36.60
2018-08-07T13:44:53.564Z,36.40
2018-08-07T13:47:22.051Z,36.20
2018-08-07T13:49:50.505Z,35.90
2018-08-07T13:52:19.001Z,35.60
2018-08-07T13:54:47.439Z,35.30
2018-08-07T13:57:15.893Z,35.00
2018-08-07T13:59:44.329Z,34.90
2018-08-07T14:02:12.825Z,34.80
2018-08-07T14:04:41.272Z,34.60
2018-08-07T14:07:09.771Z,34.40
2018-08-07T14:09:38.320Z,34.20
2018-08-07T14:14:34.899Z,33.70
2018-08-07T14:17:05.359Z,33.50
2018-08-07T14:19:33.807Z,33.20
2018-08-07T14:22:02.252Z,32.40
2018-08-07T14:24:30.709Z,31.10
2018-08-07T14:26:59.196Z,28.60
2018-08-07T14:29:27.710Z,26.80
2018-08-07T14:31:56.169Z,25.50
2018-08-07T14:34:24.624Z,24.40
2018-08-07T14:36:53.177Z,24.20
2018-08-07T14:39:21.608Z,23.90
2018-08-07T14:41:50.068Z,23.90
2018-08-07T14:44:18.539Z,23.80
2018-08-07T14:46:47.048Z,23.80
2018-08-07T14:49:15.491Z,23.90
2018-08-07T14:51:43.970Z,24.20
2018-08-07T14:54:12.400Z,24.50
2018-08-07T14:56:40.839Z,24.90
2018-08-07T14:59:09.314Z,25.10
2018-08-07T15:01:37.773Z,25.20
2018-08-07T15:04:06.264Z,25.40
2018-08-07T15:06:34.708Z,25.60
2018-08-07T15:09:03.864Z,25.80
2018-08-07T15:11:32.313Z,26.00
2018-08-07T15:14:00.848Z,26.10
2018-08-07T15:16:29.276Z,26.30
2018-08-07T15:18:57.756Z,26.40
2018-08-07T15:23:54.336Z,26.20
2018-08-07T15:26:22.780Z,26.10
2018-08-07T15:28:51.252Z,26.10
2018-08-07T15:31:19.704Z,26.10
2018-08-07T15:33:48.167Z,26.10
2018-08-07T15:36:16.613Z,26.10
2018-08-07T15:38:45.060Z,26.00
2018-08-07T15:41:13.506Z,26.10
2018-08-07T15:43:55.884Z,26.10
2018-08-07T15:46:24.331Z,26.20
2018-08-07T15:48:52.814Z,26.40
2018-08-07T15:51:21.267Z,26.30
2018-08-07T15:53:49.740Z,26.10
2018-08-07T15:56:18.188Z,25.90
2018-08-07T15:58:46.663Z,25.80
2018-08-07T16:01:15.108Z,25.70
2018-08-07T16:03:43.584Z,25.80
2018-08-07T16:06:12.135Z,26.00
2018-08-07T16:08:40.591Z,26.00
2018-08-07T16:11:09.065Z,26.10
2018-08-07T16:13:37.524Z,26.20
2018-08-07T16:16:06.015Z,26.10
2018-08-07T16:18:34.463Z,26.10
2018-08-07T16:21:02.964Z,25.90
2018-08-07T16:23:31.388Z,25.70
2018-08-07T16:25:59.877Z,25.60
2018-08-07T16:28:28.297Z,25.60
2018-08-07T16:30:56.772Z,25.50
2018-08-07T16:33:25.224Z,25.50
2018-08-07T16:35:53.655Z,25.50
2018-08-07T16:38:22.095Z,25.70
2018-08-07T16:40:50.599Z,25.80
2018-08-07T16:43:19.037Z,25.80
2018-08-07T16:45:47.530Z,25.90
2018-08-07T16:48:15.963Z,25.90
2018-08-07T16:50:44.432Z,25.80
2018-08-07T16:53:12.925Z,25.70
2018-08-07T16:55:41.369Z,25.50
2018-08-07T16:58:09.865Z,25.50
2018-08-07T17:00:38.288Z,25.50
2018-08-07T17:03:06.907Z,25.60
2018-08-07T17:05:35.392Z,25.50
2018-08-07T17:08:03.863Z,25.50
2018-08-07T17:10:32.301Z,25.50
2018-08-07T17:13:00.711Z,25.50
2018-08-07T17:15:29.179Z,25.60
2018-08-07T17:17:57.622Z,25.70
2018-08-07T17:20:26.065Z,25.70
2018-08-07T17:22:54.696Z,25.60
2018-08-07T17:25:23.774Z,25.60
2018-08-07T17:27:52.404Z,25.50
2018-08-07T17:30:24.591Z,25.50
2018-08-07T17:32:53.101Z,25.40
2018-08-07T17:35:23.764Z,25.40
2018-08-07T17:37:53.631Z,25.40
2018-08-07T17:40:23.516Z,25.50
2018-08-07T17:42:52.116Z,25.60
2018-08-07T17:45:20.760Z,25.50
2018-08-07T17:47:49.251Z,25.50
2018-08-07T17:50:19.484Z,25.30
2018-08-07T17:52:47.985Z,25.20
2018-08-07T17:55:16.602Z,25.10
2018-08-07T17:57:45.340Z,25.00
2018-08-07T18:00:17.109Z,24.90
2018-08-07T18:02:45.900Z,24.90
2018-08-07T18:05:14.447Z,24.80
2018-08-07T18:07:46.739Z,24.80
2018-08-07T18:10:16.583Z,24.80
2018-08-07T18:12:45.153Z,24.80
2018-08-07T18:15:15.032Z,24.80
2018-08-07T18:17:44.045Z,24.80
2018-08-07T18:20:16.109Z,24.70
2018-08-07T18:22:44.592Z,24.60
2018-08-07T18:25:13.059Z,24.50
2018-08-07T18:27:41.592Z,24.40
2018-08-07T18:30:13.546Z,24.30
2018-08-07T18:32:42.504Z,24.20
2018-08-07T18:37:39.952Z,24.10
2018-08-07T18:40:09.092Z,24.10
2018-08-07T18:42:37.700Z,24.00
2018-08-07T18:45:09.028Z,23.90
2018-08-07T18:47:38.006Z,23.90
2018-08-07T18:50:07.803Z,23.80
2018-08-07T18:52:36.289Z,23.70
2018-08-07T18:55:06.677Z,23.70
2018-08-07T18:57:35.216Z,23.50
2018-08-07T19:00:04.237Z,23.40
2018-08-07T19:02:32.672Z,23.30
2018-08-07T19:05:01.129Z,23.20
2018-08-07T19:07:29.577Z,23.10
2018-08-07T19:09:58.025Z,23.00
2018-08-07T19:12:26.464Z,22.80
2018-08-07T19:14:54.917Z,22.60
2018-08-07T19:17:23.341Z,22.60
2018-08-07T19:19:51.776Z,22.50
2018-08-07T19:22:20.207Z,22.50
2018-08-07T19:24:48.713Z,22.50
2018-08-07T19:27:17.163Z,22.60
2018-08-07T19:29:45.578Z,22.60
2018-08-07T19:32:14.061Z,22.50
2018-08-07T19:34:42.539Z,22.40
2018-08-07T19:37:10.944Z,22.30
2018-08-07T19:39:39.405Z,22.30
2018-08-07T19:42:07.871Z,22.20
2018-08-07T19:44:36.288Z,22.10
2018-08-07T19:47:05.128Z,22.00
2018-08-07T19:49:33.579Z,22.00
2018-08-07T19:52:02.067Z,21.90
2018-08-07T19:54:30.519Z,22.00
2018-08-07T19:56:59.121Z,21.90
2018-08-07T19:59:27.544Z,21.90
2018-08-07T20:01:56.047Z,21.90
2018-08-07T20:04:24.496Z,21.90
2018-08-07T20:06:52.968Z,21.90
2018-08-07T20:09:21.415Z,21.90
2018-08-07T20:11:49.985Z,21.80
2018-08-07T20:14:18.667Z,21.70
2018-08-07T20:16:47.132Z,21.50
2018-08-07T20:19:15.571Z,21.50
2018-08-07T20:21:44.050Z,21.40
2018-08-07T20:24:12.807Z,21.30
2018-08-07T20:26:41.305Z,21.30
2018-08-07T20:29:09.735Z,21.20
2018-08-07T20:31:38.222Z,21.10
2018-08-07T20:34:06.694Z,21.10
2018-08-07T20:36:35.168Z,21.10
2018-08-07T20:39:03.816Z,21.10
2018-08-07T20:41:32.284Z,21.20
2018-08-07T20:44:00.736Z,21.20
2018-08-07T20:46:29.195Z,21.10
2018-08-07T20:48:57.620Z,21.10
2018-08-07T20:51:26.344Z,21.00
2018-08-07T20:53:54.791Z,21.00
2018-08-07T20:56:23.213Z,21.00
2018-08-07T20:58:51.684Z,20.90
2018-08-07T21:01:20.124Z,20.80
2018-08-07T21:03:48.637Z,20.70
2018-08-07T21:06:17.142Z,20.60
2018-08-07T21:08:45.695Z,20.40
2018-08-07T21:11:14.132Z,20.30
2018-08-07T21:13:42.679Z,20.20
2018-08-07T21:16:11.238Z,20.20
2018-08-07T21:18:39.787Z,20.30
2018-08-07T21:21:08.221Z,20.40
2018-08-07T21:23:36.671Z,20.40
2018-08-07T21:26:05.240Z,20.50
2018-08-07T21:28:33.774Z,20.50
2018-08-07T21:31:02.352Z,20.50
2018-08-07T21:33:30.808Z,20.50
2018-08-07T21:35:59.230Z,20.40
2018-08-07T21:38:27.694Z,20.40
2018-08-07T21:40:56.104Z,20.30
2018-08-07T21:43:24.544Z,20.10
2018-08-07T21:45:52.988Z,19.90
2018-08-07T21:48:21.444Z,19.80
2018-08-07T21:50:49.919Z,19.80
2018-08-07T21:53:18.443Z,19.90
2018-08-07T21:55:46.920Z,19.90
2018-08-07T21:58:15.368Z,19.90
2018-08-07T22:00:50.316Z,20.00
2018-08-07T22:03:18.956Z,20.00
2018-08-07T22:05:48.144Z,20.00
2018-08-07T22:08:16.680Z,20.00
2018-08-07T22:10:45.160Z,19.90
2018-08-07T22:13:13.621Z,19.80
2018-08-07T22:15:42.123Z,19.70
2018-08-07T22:18:11.608Z,19.60
2018-08-07T22:20:40.115Z,19.50
2018-08-07T22:23:08.555Z,19.60
2018-08-07T22:25:37.088Z,19.60
2018-08-07T22:28:05.936Z,19.60
2018-08-07T22:30:34.372Z,19.60
2018-08-07T22:33:02.792Z,19.50
2018-08-07T22:35:31.240Z,19.40
2018-08-07T22:37:59.669Z,19.20
2018-08-07T22:40:28.117Z,19.10
2018-08-07T22:42:56.597Z,18.90
2018-08-07T22:45:25.047Z,19.00
2018-08-07T22:47:53.504Z,19.00
2018-08-07T22:50:21.945Z,19.20
2018-08-07T22:52:50.677Z,19.30
2018-08-07T22:55:20.097Z,19.30
2018-08-07T22:57:48.522Z,19.30
2018-08-07T23:00:19.328Z,19.20
2018-08-07T23:02:47.703Z,19.10
2018-08-07T23:05:17.215Z,19.00
2018-08-07T23:07:45.695Z,18.90
2018-08-07T23:10:17.548Z,18.80
2018-08-07T23:12:46.059Z,18.80
2018-08-07T23:15:16.515Z,18.80
2018-08-07T23:17:45.537Z,18.90
2018-08-07T23:20:16.387Z,19.00
2018-08-07T23:23:24.443Z,19.10
2018-08-07T23:25:52.905Z,19.20
2018-08-07T23:28:21.316Z,19.20
2018-08-07T23:30:49.742Z,19.20
2018-08-07T23:33:18.168Z,19.10
2018-08-07T23:35:46.637Z,18.90
2018-08-07T23:38:15.091Z,18.80
2018-08-07T23:40:43.520Z,18.60
2018-08-07T23:43:11.961Z,18.60
2018-08-07T23:45:40.407Z,18.60
2018-08-07T23:48:08.845Z,18.50
2018-08-07T23:50:37.273Z,18.60
2018-08-07T23:53:05.758Z,18.60
2018-08-07T23:55:34.204Z,18.60
2018-08-07T23:58:02.658Z,18.70
